createdAt,value
2022-12-18T00:00:10.600Z,55.03
2022-12-18T00:02:40.774Z,54.87
2022-12-18T00:05:09.911Z,55.51
2022-12-18T00:07:39.410Z,55.37
2022-12-18T00:10:09.222Z,55.63
2022-12-18T00:12:37.608Z,55.76
2022-12-18T00:15:06.910Z,55.30
2022-12-18T00:17:35.390Z,55.40
2022-12-18T00:20:05.873Z,55.43
2022-12-18T00:22:34.609Z,55.36
2022-12-18T00:25:03.259Z,55.59
2022-12-18T00:27:31.705Z,55.46
2022-12-18T00:30:00.349Z,55.56
2022-12-18T00:32:28.823Z,55.58
2022-12-18T00:34:57.208Z,55.50
2022-12-18T00:37:26.959Z,55.65
2022-12-18T00:39:55.402Z,55.39
2022-12-18T00:42:41.065Z,55.43
2022-12-18T00:45:12.962Z,55.88
2022-12-18T00:47:41.931Z,56.02
2022-12-18T00:50:11.464Z,55.78
2022-12-18T00:52:41.634Z,55.79
2022-12-18T00:55:10.255Z,55.84
2022-12-18T00:57:39.495Z,55.90
2022-12-18T01:00:11.401Z,56.00
2022-12-18T01:02:39.942Z,55.91
2022-12-18T01:05:09.286Z,55.66
2022-12-18T01:07:37.660Z,55.97
2022-12-18T01:10:09.997Z,55.43
2022-12-18T01:12:38.493Z,55.83
2022-12-18T01:15:09.130Z,55.70
2022-12-18T01:17:38.306Z,55.96
2022-12-18T01:20:08.184Z,55.92
2022-12-18T01:22:37.135Z,56.08
2022-12-18T01:25:07.832Z,56.04
2022-12-18T01:27:37.163Z,55.81
2022-12-18T01:30:06.540Z,55.86
2022-12-18T01:32:35.790Z,55.91
2022-12-18T01:35:04.674Z,55.91
2022-12-18T01:37:32.998Z,55.91
2022-12-18T01:40:01.404Z,56.20
2022-12-18T01:42:31.705Z,55.65
2022-12-18T01:45:03.893Z,56.55
2022-12-18T01:47:37.220Z,55.68
2022-12-18T01:50:09.414Z,56.02
2022-12-18T01:52:39.659Z,56.03
2022-12-18T01:55:10.472Z,56.24
2022-12-18T01:57:40.855Z,56.56
2022-12-18T02:00:12.480Z,56.34
2022-12-18T02:02:42.037Z,56.61
2022-12-18T02:05:11.614Z,55.99
2022-12-18T02:07:51.053Z,56.10
2022-12-18T02:10:27.437Z,56.42
2022-12-18T02:13:05.607Z,56.03
2022-12-18T02:15:41.534Z,56.59
2022-12-18T02:18:15.711Z,56.46
2022-12-18T02:20:50.329Z,56.66
2022-12-18T02:23:41.036Z,56.61
2022-12-18T02:26:22.658Z,56.62
2022-12-18T02:28:56.883Z,56.51
2022-12-18T02:31:28.533Z,56.33
2022-12-18T02:33:59.847Z,56.02
2022-12-18T02:36:30.922Z,56.08
2022-12-18T02:39:01.456Z,56.44
2022-12-18T02:41:32.656Z,56.46
2022-12-18T02:44:09.075Z,56.51
2022-12-18T02:46:40.363Z,56.25
2022-12-18T02:49:21.512Z,56.06
2022-12-18T02:51:55.165Z,56.67
2022-12-18T02:54:39.065Z,56.21
2022-12-18T02:57:18.594Z,56.37
2022-12-18T02:59:55.361Z,56.35
2022-12-18T03:02:32.891Z,56.52
2022-12-18T03:05:08.212Z,56.77
2022-12-18T03:07:41.471Z,56.69
2022-12-18T03:10:14.247Z,56.21
2022-12-18T03:12:50.057Z,56.47
2022-12-18T03:15:23.508Z,56.69
2022-12-18T03:18:02.610Z,56.28
2022-12-18T03:20:34.697Z,56.62
2022-12-18T03:23:10.646Z,56.27
2022-12-18T03:25:43.202Z,56.09
2022-12-18T03:28:16.875Z,56.20
2022-12-18T03:30:47.025Z,56.37
2022-12-18T03:33:21.680Z,56.76
2022-12-18T03:35:50.755Z,56.29
2022-12-18T03:38:19.266Z,56.76
2022-12-18T03:40:56.332Z,56.06
2022-12-18T03:43:35.710Z,56.35
2022-12-18T03:46:10.369Z,56.82
2022-12-18T03:48:44.308Z,56.34
2022-12-18T03:51:19.392Z,56.61
2022-12-18T03:53:54.800Z,56.46
2022-12-18T03:56:25.230Z,56.56
2022-12-18T03:58:57.338Z,56.31
2022-12-18T04:01:31.508Z,56.17
2022-12-18T04:04:02.641Z,56.38
2022-12-18T04:06:32.364Z,56.54
2022-12-18T04:09:01.440Z,56.58
2022-12-18T04:11:30.091Z,56.24
2022-12-18T04:14:02.726Z,56.69
2022-12-18T04:16:34.331Z,56.22
2022-12-18T04:19:02.869Z,56.94
2022-12-18T04:21:31.412Z,56.53
2022-12-18T04:23:59.796Z,56.46
2022-12-18T04:26:28.277Z,56.23
2022-12-18T04:28:56.746Z,56.76
2022-12-18T04:31:26.695Z,56.41
2022-12-18T04:33:55.152Z,56.37
2022-12-18T04:36:23.515Z,55.90
2022-12-18T04:38:52.062Z,55.92
2022-12-18T04:41:20.418Z,56.64
2022-12-18T04:43:48.875Z,56.00
2022-12-18T04:46:17.522Z,56.13
2022-12-18T04:48:48.981Z,55.84
2022-12-18T04:51:20.855Z,56.36
2022-12-18T04:53:53.144Z,56.11
2022-12-18T04:56:21.731Z,56.61
2022-12-18T04:58:50.359Z,56.15
2022-12-18T05:01:20.439Z,56.06
2022-12-18T05:03:50.711Z,56.04
2022-12-18T05:06:19.162Z,55.93
2022-12-18T05:08:47.716Z,56.13
2022-12-18T05:11:17.906Z,56.44
2022-12-18T05:13:48.031Z,55.79
2022-12-18T05:16:17.406Z,56.00
2022-12-18T05:18:46.673Z,55.92
2022-12-18T05:21:16.599Z,56.35
2022-12-18T05:23:45.054Z,56.22
2022-12-18T05:26:18.214Z,55.83
2022-12-18T05:28:47.200Z,56.33
2022-12-18T05:31:16.157Z,56.70
2022-12-18T05:33:44.853Z,56.65
2022-12-18T05:36:13.664Z,56.28
2022-12-18T05:38:44.019Z,56.11
2022-12-18T05:41:12.718Z,56.02
2022-12-18T05:43:42.763Z,56.26
2022-12-18T05:46:14.653Z,56.30
2022-12-18T05:48:43.360Z,56.21
2022-12-18T05:51:13.851Z,56.29
2022-12-18T05:53:44.143Z,56.11
2022-12-18T05:56:16.969Z,56.53
2022-12-18T05:58:45.883Z,56.72
2022-12-18T06:01:16.716Z,56.04
2022-12-18T06:03:46.008Z,56.31
2022-12-18T06:06:19.665Z,56.67
2022-12-18T06:08:49.641Z,56.41
2022-12-18T06:11:20.967Z,56.42
2022-12-18T06:13:57.669Z,56.72
2022-12-18T06:16:27.100Z,56.96
2022-12-18T06:18:55.974Z,56.94
2022-12-18T06:21:24.351Z,56.54
2022-12-18T06:23:54.402Z,56.51
2022-12-18T06:26:27.833Z,56.85
2022-12-18T06:28:56.825Z,56.82
2022-12-18T06:31:25.854Z,56.75
2022-12-18T06:33:54.559Z,56.74
2022-12-18T06:36:23.119Z,56.64
2022-12-18T06:38:51.817Z,56.53
2022-12-18T06:41:23.446Z,57.37
2022-12-18T06:43:55.573Z,56.86
2022-12-18T06:46:26.655Z,57.09
2022-12-18T06:48:55.083Z,56.94
2022-12-18T06:51:25.029Z,56.95
2022-12-18T06:53:53.500Z,57.17
2022-12-18T06:56:24.371Z,56.85
2022-12-18T06:58:53.031Z,57.55
2022-12-18T07:01:21.692Z,57.06
2022-12-18T07:03:54.579Z,57.34
2022-12-18T07:06:25.005Z,57.27
2022-12-18T07:08:54.456Z,56.77
2022-12-18T07:11:24.388Z,57.11
2022-12-18T07:13:52.866Z,57.21
2022-12-18T07:16:25.531Z,56.92
2022-12-18T07:18:54.418Z,56.92
2022-12-18T07:21:23.955Z,57.23
2022-12-18T07:23:52.753Z,57.32
2022-12-18T07:26:24.377Z,57.00
2022-12-18T07:28:56.947Z,57.13
2022-12-18T07:31:26.003Z,57.53
2022-12-18T07:33:55.116Z,57.07
2022-12-18T07:36:26.139Z,57.55
2022-12-18T07:38:54.767Z,57.15
2022-12-18T07:41:24.572Z,57.14
2022-12-18T07:43:52.926Z,56.75
2022-12-18T07:46:22.200Z,57.89
2022-12-18T07:48:50.637Z,57.30
2022-12-18T07:51:20.194Z,57.36
2022-12-18T07:53:51.983Z,57.29
2022-12-18T07:56:30.320Z,57.38
2022-12-18T07:59:03.864Z,57.61
2022-12-18T08:01:32.625Z,57.47
2022-12-18T08:04:01.198Z,57.36
2022-12-18T08:06:29.527Z,57.53
2022-12-18T08:08:59.139Z,57.71
2022-12-18T08:11:29.171Z,57.29
2022-12-18T08:13:58.122Z,58.10
2022-12-18T08:16:28.437Z,57.88
2022-12-18T08:18:57.162Z,58.07
2022-12-18T08:21:27.426Z,57.95
2022-12-18T08:23:57.991Z,57.89
2022-12-18T08:26:28.244Z,58.09
2022-12-18T08:28:57.386Z,58.27
2022-12-18T08:31:28.228Z,58.04
2022-12-18T08:33:57.583Z,58.20
2022-12-18T08:36:27.764Z,58.36
2022-12-18T08:38:56.811Z,58.52
2022-12-18T08:41:25.487Z,58.28
2022-12-18T08:44:11.025Z,58.55
2022-12-18T08:46:43.228Z,58.27
2022-12-18T08:49:12.689Z,58.63
2022-12-18T08:51:41.747Z,58.61
2022-12-18T08:54:13.180Z,58.80
2022-12-18T08:56:41.662Z,58.31
2022-12-18T08:59:17.551Z,58.69
2022-12-18T09:01:50.669Z,58.75
2022-12-18T09:04:19.560Z,58.83
2022-12-18T09:06:49.029Z,58.61
2022-12-18T09:09:17.349Z,58.61
2022-12-18T09:11:45.943Z,58.33
2022-12-18T09:14:14.561Z,58.65
2022-12-18T09:16:42.994Z,58.46
2022-12-18T09:19:13.316Z,58.25
2022-12-18T09:21:47.484Z,58.09
2022-12-18T09:24:16.999Z,58.34
2022-12-18T09:26:47.539Z,58.20
2022-12-18T09:29:18.865Z,58.34
2022-12-18T09:31:47.523Z,58.12
2022-12-18T09:34:17.655Z,58.24
2022-12-18T09:36:46.182Z,58.09
2022-12-18T09:39:15.803Z,58.35
2022-12-18T09:41:48.561Z,58.04
2022-12-18T09:44:24.014Z,58.03
2022-12-18T09:46:58.230Z,57.89
2022-12-18T09:49:31.644Z,58.09
2022-12-18T09:52:06.314Z,58.02
2022-12-18T09:54:38.373Z,57.99
2022-12-18T09:57:07.018Z,57.79
2022-12-18T09:59:39.193Z,56.90
2022-12-18T10:02:23.611Z,56.84
2022-12-18T10:05:03.662Z,56.71
2022-12-18T10:07:42.513Z,56.58
2022-12-18T10:10:21.933Z,56.48
2022-12-18T10:13:04.102Z,56.78
2022-12-18T10:15:38.767Z,55.82
2022-12-18T10:18:22.119Z,56.27
2022-12-18T10:20:55.556Z,56.03
2022-12-18T10:23:29.909Z,56.42
2022-12-18T10:26:04.103Z,55.86
2022-12-18T10:28:34.250Z,55.52
2022-12-18T10:31:03.043Z,55.25
2022-12-18T10:33:33.649Z,54.83
2022-12-18T10:36:04.351Z,54.89
2022-12-18T10:38:34.144Z,54.85
2022-12-18T10:41:05.677Z,54.47
2022-12-18T10:43:35.824Z,54.29
2022-12-18T10:46:15.694Z,53.57
2022-12-18T10:48:53.774Z,53.57
2022-12-18T10:51:27.275Z,52.87
2022-12-18T10:54:03.779Z,52.28
2022-12-18T10:56:35.820Z,51.58
2022-12-18T10:59:06.946Z,51.47
2022-12-18T11:01:50.081Z,51.05
2022-12-18T11:04:24.763Z,51.67
2022-12-18T11:07:02.340Z,51.64
2022-12-18T11:09:33.339Z,51.85
2022-12-18T11:12:04.222Z,51.49
2022-12-18T11:14:35.768Z,51.00
2022-12-18T11:19:57.474Z,50.15
2022-12-18T11:22:30.250Z,50.03
2022-12-18T11:25:30.836Z,50.20
2022-12-18T11:27:51.900Z,50.07
2022-12-18T11:30:25.408Z,49.38
2022-12-18T11:32:56.652Z,49.91
2022-12-18T11:35:32.747Z,49.33
2022-12-18T11:38:13.457Z,47.27
2022-12-18T11:40:46.500Z,48.54
2022-12-18T11:43:19.392Z,48.75
2022-12-18T11:45:55.456Z,48.39
2022-12-18T11:48:28.387Z,48.57
2022-12-18T11:50:59.654Z,48.34
2022-12-18T11:53:30.448Z,48.40
2022-12-18T11:56:09.148Z,47.90
2022-12-18T11:58:59.955Z,47.30
2022-12-18T12:01:44.490Z,47.96
2022-12-18T12:04:53.031Z,47.67
2022-12-18T12:07:35.788Z,47.45
2022-12-18T12:10:18.763Z,47.91
2022-12-18T12:13:12.904Z,47.42
2022-12-18T12:15:50.348Z,47.32
2022-12-18T12:18:30.987Z,47.09
2022-12-18T12:21:08.710Z,47.48
2022-12-18T12:23:46.171Z,47.09
2022-12-18T12:26:25.293Z,47.57
2022-12-18T12:29:10.659Z,47.09
2022-12-18T12:32:00.705Z,47.01
2022-12-18T12:34:36.441Z,47.06
2022-12-18T12:37:17.234Z,46.77
2022-12-18T12:39:48.521Z,46.25
2022-12-18T12:42:42.580Z,45.45
2022-12-18T12:45:18.793Z,46.41
2022-12-18T12:47:50.448Z,46.48
2022-12-18T12:50:22.206Z,46.50
2022-12-18T12:52:56.103Z,46.45
2022-12-18T12:55:26.630Z,46.20
2022-12-18T12:58:07.173Z,45.71
2022-12-18T13:00:42.374Z,45.82
2022-12-18T13:03:18.002Z,45.62
2022-12-18T13:05:52.372Z,45.72
2022-12-18T13:08:26.812Z,45.15
2022-12-18T13:13:45.003Z,45.25
2022-12-18T13:14:23.225Z,44.69
2022-12-18T13:16:53.092Z,44.46
2022-12-18T13:19:26.597Z,44.42
2022-12-18T13:21:57.383Z,44.54
2022-12-18T13:24:28.703Z,44.53
2022-12-18T13:26:57.672Z,43.89
2022-12-18T13:29:47.502Z,43.20
2022-12-18T13:32:24.039Z,43.68
2022-12-18T13:35:26.244Z,43.56
2022-12-18T13:37:56.483Z,44.21
2022-12-18T13:41:00.118Z,43.40
2022-12-18T13:43:39.925Z,43.49
2022-12-18T13:46:22.308Z,43.04
2022-12-18T13:48:55.580Z,42.93
2022-12-18T13:51:26.040Z,43.38
2022-12-18T13:53:57.753Z,43.55
2022-12-18T13:56:29.396Z,42.87
2022-12-18T13:59:15.732Z,42.95
2022-12-18T14:01:48.635Z,42.74
2022-12-18T14:04:24.042Z,43.05
2022-12-18T14:06:55.677Z,43.29
2022-12-18T14:09:28.101Z,42.79
2022-12-18T14:12:19.635Z,42.43
2022-12-18T14:14:50.258Z,43.37
2022-12-18T14:17:23.206Z,43.42
2022-12-18T14:19:53.601Z,43.47
2022-12-18T14:22:28.938Z,43.02
2022-12-18T14:25:16.805Z,43.38
2022-12-18T14:27:46.673Z,43.13
2022-12-18T14:30:33.184Z,43.00
2022-12-18T14:33:08.573Z,43.25
2022-12-18T14:35:39.184Z,43.23
2022-12-18T14:38:25.919Z,43.44
2022-12-18T14:41:01.528Z,43.07
2022-12-18T14:43:31.587Z,43.38
2022-12-18T14:46:01.122Z,43.33
2022-12-18T14:48:42.191Z,43.32
2022-12-18T14:51:20.014Z,43.12
2022-12-18T14:53:54.587Z,42.89
2022-12-18T14:56:25.433Z,43.09
2022-12-18T14:58:57.130Z,42.73
2022-12-18T15:01:29.656Z,42.99
2022-12-18T15:04:01.663Z,43.47
2022-12-18T15:06:34.341Z,42.64
2022-12-18T15:09:04.438Z,43.40
2022-12-18T15:11:45.878Z,43.42
2022-12-18T15:14:37.173Z,42.88
2022-12-18T15:17:09.376Z,43.43
2022-12-18T15:19:42.422Z,43.91
2022-12-18T15:22:23.617Z,43.79
2022-12-18T15:24:52.813Z,43.98
2022-12-18T15:27:28.304Z,44.02
2022-12-18T15:30:21.698Z,43.90
2022-12-18T15:32:52.766Z,43.72
2022-12-18T15:35:24.490Z,43.49
2022-12-18T15:37:53.764Z,43.71
2022-12-18T15:40:25.027Z,43.72
2022-12-18T15:43:14.118Z,43.40
2022-12-18T15:45:42.461Z,44.03
2022-12-18T15:48:22.816Z,43.64
2022-12-18T15:50:56.544Z,44.20
2022-12-18T15:53:25.817Z,44.08
2022-12-18T15:56:11.595Z,43.94
2022-12-18T15:58:40.785Z,43.67
2022-12-18T16:01:11.199Z,43.24
2022-12-18T16:03:40.107Z,43.56
2022-12-18T16:06:11.933Z,43.29
2022-12-18T16:08:40.303Z,43.28
2022-12-18T16:11:39.092Z,43.70
2022-12-18T16:14:15.087Z,43.43
2022-12-18T16:16:44.785Z,43.28
2022-12-18T16:19:13.386Z,43.94
2022-12-18T16:21:43.339Z,43.51
2022-12-18T16:24:17.417Z,43.11
2022-12-18T16:26:46.348Z,42.92
2022-12-18T16:29:14.843Z,43.08
2022-12-18T16:31:43.482Z,43.51
2022-12-18T16:34:16.005Z,42.29
2022-12-18T16:36:45.876Z,42.90
2022-12-18T16:39:14.239Z,43.18
2022-12-18T16:41:42.637Z,43.22
2022-12-18T16:44:11.335Z,43.62
2022-12-18T16:46:40.203Z,43.24
2022-12-18T16:49:08.710Z,42.74
2022-12-18T16:51:37.252Z,42.69
2022-12-18T16:54:10.294Z,43.36
2022-12-18T16:56:41.043Z,42.94
2022-12-18T16:59:10.164Z,43.24
2022-12-18T17:01:38.627Z,43.31
2022-12-18T17:04:08.287Z,43.30
2022-12-18T17:06:44.249Z,42.88
2022-12-18T17:09:16.191Z,43.08
2022-12-18T17:11:45.553Z,43.02
2022-12-18T17:14:17.311Z,43.52
2022-12-18T17:16:45.849Z,42.94
2022-12-18T17:19:17.452Z,43.23
2022-12-18T17:21:46.822Z,42.90
2022-12-18T17:24:16.843Z,43.03
2022-12-18T17:26:46.396Z,42.98
2022-12-18T17:29:18.410Z,42.34
2022-12-18T17:31:48.218Z,42.41
2022-12-18T17:34:17.325Z,42.54
2022-12-18T17:36:45.793Z,43.28
2022-12-18T17:39:20.574Z,42.24
2022-12-18T17:41:50.268Z,42.56
2022-12-18T17:44:19.807Z,42.62
2022-12-18T17:46:48.260Z,43.13
2022-12-18T17:49:16.763Z,42.85
2022-12-18T17:51:45.210Z,42.82
2022-12-18T17:54:13.649Z,42.96
2022-12-18T17:56:43.435Z,42.69
2022-12-18T17:59:12.306Z,42.47
2022-12-18T18:01:44.387Z,42.54
2022-12-18T18:04:14.612Z,41.99
2022-12-18T18:06:43.019Z,42.42
2022-12-18T18:09:16.860Z,42.54
2022-12-18T18:12:04.352Z,43.03
2022-12-18T18:14:33.590Z,43.07
2022-12-18T18:17:04.795Z,43.23
2022-12-18T18:19:34.863Z,43.08
2022-12-18T18:22:03.640Z,43.28
2022-12-18T18:24:33.236Z,43.14
2022-12-18T18:27:02.986Z,43.29
2022-12-18T18:29:31.671Z,42.95
2022-12-18T18:32:00.642Z,42.79
2022-12-18T18:34:30.960Z,43.08
2022-12-18T18:37:02.927Z,43.33
2022-12-18T18:39:31.479Z,43.36
2022-12-18T18:41:59.963Z,43.98
2022-12-18T18:44:29.791Z,43.79
2022-12-18T18:46:59.082Z,43.57
2022-12-18T18:49:28.922Z,43.55
2022-12-18T18:51:59.501Z,44.07
2022-12-18T18:54:28.144Z,43.49
2022-12-18T18:57:19.417Z,42.63
2022-12-18T18:59:47.919Z,42.72
2022-12-18T19:02:17.635Z,42.71
2022-12-18T19:04:46.890Z,43.39
2022-12-18T19:07:26.152Z,43.06
2022-12-18T19:10:01.531Z,43.55
2022-12-18T19:12:49.876Z,43.12
2022-12-18T19:15:19.817Z,43.34
2022-12-18T19:17:48.237Z,43.03
2022-12-18T19:20:17.023Z,43.39
2022-12-18T19:22:52.188Z,42.89
2022-12-18T19:25:26.961Z,42.91
2022-12-18T19:28:04.147Z,42.88
2022-12-18T19:30:40.421Z,42.41
2022-12-18T19:33:33.990Z,41.87
2022-12-18T19:35:57.264Z,42.40
2022-12-18T19:38:25.693Z,42.05
2022-12-18T19:40:55.027Z,42.65
2022-12-18T19:43:24.165Z,42.94
2022-12-18T19:45:57.587Z,42.68
2022-12-18T19:48:25.978Z,42.40
2022-12-18T19:50:54.355Z,41.94
2022-12-18T19:53:22.917Z,42.45
2022-12-18T19:55:51.372Z,42.47
2022-12-18T19:58:19.709Z,42.39
2022-12-18T20:00:50.779Z,42.75
2022-12-18T20:03:28.693Z,43.12
2022-12-18T20:06:10.288Z,42.83
2022-12-18T20:08:38.761Z,43.14
2022-12-18T20:11:08.290Z,43.01
2022-12-18T20:13:36.729Z,43.17
2022-12-18T20:16:06.165Z,43.47
2022-12-18T20:18:36.000Z,43.34
2022-12-18T20:21:08.251Z,43.57
2022-12-18T20:23:39.451Z,43.85
2022-12-18T20:26:08.774Z,44.13
2022-12-18T20:28:37.230Z,44.33
2022-12-18T20:31:10.412Z,44.10
2022-12-18T20:33:41.600Z,44.15
2022-12-18T20:36:15.283Z,43.94
2022-12-18T20:38:45.472Z,43.84
2022-12-18T20:41:18.894Z,44.44
2022-12-18T20:43:47.756Z,44.55
2022-12-18T20:46:18.461Z,44.44
2022-12-18T20:48:49.034Z,44.50
2022-12-18T20:51:19.224Z,44.69
2022-12-18T20:53:48.187Z,44.95
2022-12-18T20:56:21.349Z,44.65
2022-12-18T20:58:50.525Z,44.53
2022-12-18T21:01:25.291Z,44.11
2022-12-18T21:03:55.731Z,44.25
2022-12-18T21:06:25.620Z,43.99
2022-12-18T21:08:53.955Z,44.37
2022-12-18T21:11:48.079Z,44.44
2022-12-18T21:14:18.707Z,44.11
2022-12-18T21:16:47.508Z,43.62
2022-12-18T21:19:19.675Z,43.98
2022-12-18T21:21:48.588Z,43.82
2022-12-18T21:24:17.509Z,43.96
2022-12-18T21:26:47.265Z,44.35
2022-12-18T21:29:18.743Z,44.69
2022-12-18T21:31:48.135Z,44.41
2022-12-18T21:34:20.158Z,45.12
2022-12-18T21:36:49.660Z,44.90
2022-12-18T21:39:18.330Z,44.86
2022-12-18T21:42:06.936Z,44.58
2022-12-18T21:44:40.108Z,44.49
2022-12-18T21:47:22.367Z,44.03
2022-12-18T21:49:54.372Z,44.24
2022-12-18T21:52:31.641Z,43.95
2022-12-18T21:55:06.657Z,43.82
2022-12-18T21:57:37.169Z,43.98
2022-12-18T22:00:06.833Z,43.67
2022-12-18T22:02:35.398Z,44.05
2022-12-18T22:05:05.808Z,44.01
2022-12-18T22:07:34.186Z,44.37
2022-12-18T22:10:02.800Z,43.97
2022-12-18T22:12:43.901Z,44.26
2022-12-18T22:15:21.224Z,43.54
2022-12-18T22:17:54.415Z,42.74
2022-12-18T22:20:30.276Z,43.78
2022-12-18T22:22:59.062Z,43.18
2022-12-18T22:25:31.248Z,42.50
2022-12-18T22:28:16.788Z,42.79
2022-12-18T22:30:45.166Z,43.57
2022-12-18T22:33:13.573Z,42.92
2022-12-18T22:35:43.486Z,43.08
2022-12-18T22:38:12.148Z,43.33
2022-12-18T22:40:40.624Z,42.95
2022-12-18T22:43:09.069Z,43.13
2022-12-18T22:45:38.429Z,43.12
2022-12-18T22:48:07.638Z,43.83
2022-12-18T22:50:36.003Z,43.83
2022-12-18T22:53:07.983Z,44.18
2022-12-18T22:55:36.544Z,43.45
2022-12-18T22:58:05.295Z,42.74
2022-12-18T23:00:33.858Z,43.34
2022-12-18T23:03:02.471Z,43.50
2022-12-18T23:05:32.133Z,43.13
2022-12-18T23:08:00.888Z,43.17
2022-12-18T23:10:30.960Z,42.30
2022-12-18T23:12:59.338Z,42.51
2022-12-18T23:15:28.635Z,43.24
2022-12-18T23:17:59.304Z,43.50
2022-12-18T23:20:28.787Z,43.14
2022-12-18T23:22:57.262Z,43.35
2022-12-18T23:25:25.951Z,43.89
2022-12-18T23:27:55.721Z,43.84
2022-12-18T23:30:24.036Z,43.43
2022-12-18T23:32:52.397Z,44.08
2022-12-18T23:35:20.898Z,43.45
2022-12-18T23:37:58.700Z,43.49
2022-12-18T23:40:28.097Z,43.80
2022-12-18T23:42:57.947Z,43.98
2022-12-18T23:45:26.230Z,43.07
2022-12-18T23:47:54.939Z,42.64
2022-12-18T23:50:29.073Z,42.85
2022-12-18T23:53:05.591Z,42.33
2022-12-18T23:55:35.882Z,42.75
2022-12-18T23:58:05.693Z,41.25
